Time;durP1;ratioP1;P1;durP2;ratioP2;P2;SDS_P1;SDS_P2;PMS_P1;PMS_P2;Temp;Humidity;BMP_temperature;BMP_pressure;BME280_temperature;BME280_humidity;BME280_pressure;Samples;Min_cycle;Max_cycle;Signal;HPM_P1;HPM_P2
2023/04/10 00:01:50;;;;;;;43.15;28.88;;;8.90;99.90;;;;;;4937552;28;20116;-51
2023/04/10 00:04:15;;;;;;;46.08;29.85;;;8.90;99.90;;;;;;4943158;28;20078;-52
2023/04/10 00:06:41;;;;;;;46.50;31.17;;;8.90;99.90;;;;;;4944865;28;20137;-52
2023/04/10 00:09:08;;;;;;;45.38;30.52;;;8.90;99.90;;;;;;4928004;28;20042;-52
2023/04/10 00:11:34;;;;;;;49.97;31.60;;;8.80;99.90;;;;;;4932708;28;20051;-54
2023/04/10 00:14:00;;;;;;;48.40;31.20;;;8.80;99.90;;;;;;4931265;28;20512;-56
2023/04/10 00:16:25;;;;;;;50.92;32.45;;;8.80;99.90;;;;;;4944999;28;20055;-52
2023/04/10 00:18:51;;;;;;;50.95;32.58;;;8.70;99.90;;;;;;4944688;28;20046;-53
2023/04/10 00:21:17;;;;;;;51.17;33.13;;;8.70;99.90;;;;;;4943705;28;20214;-52
2023/04/10 00:23:43;;;;;;;50.53;32.72;;;8.70;99.90;;;;;;4944324;28;20047;-54
2023/04/10 00:26:09;;;;;;;53.58;33.92;;;8.70;99.90;;;;;;4947347;28;20161;-53
2023/04/10 00:28:37;;;;;;;50.53;33.13;;;8.70;99.90;;;;;;4943935;28;20074;-53
2023/04/10 00:31:04;;;;;;;54.15;34.20;;;8.60;99.90;;;;;;4946635;28;20478;-53
2023/04/10 00:33:30;;;;;;;53.83;34.50;;;8.60;99.90;;;;;;4944817;28;20062;-52
2023/04/10 00:35:55;;;;;;;56.35;35.35;;;8.60;99.90;;;;;;4945529;28;20046;-51
2023/04/10 00:38:21;;;;;;;53.38;33.70;;;8.60;99.90;;;;;;4960101;28;20141;-52
2023/04/10 00:40:47;;;;;;;50.80;32.72;;;8.60;99.90;;;;;;4945850;28;20413;-53
2023/04/10 00:43:13;;;;;;;56.95;35.05;;;8.60;99.90;;;;;;4941891;28;20410;-54
2023/04/10 00:45:39;;;;;;;52.55;34.85;;;8.50;99.90;;;;;;4947508;28;20133;-53
2023/04/10 00:48:05;;;;;;;51.55;34.38;;;8.50;99.90;;;;;;4943959;28;20066;-52
2023/04/10 00:50:31;;;;;;;52.35;35.47;;;8.50;99.90;;;;;;4943236;28;20055;-52
2023/04/10 00:52:57;;;;;;;55.78;36.53;;;8.40;99.90;;;;;;4943604;28;20054;-53
2023/04/10 00:55:24;;;;;;;56.25;36.17;;;8.40;99.90;;;;;;4941071;28;20486;-53
2023/04/10 00:57:51;;;;;;;55.72;34.80;;;8.40;99.90;;;;;;4944309;28;20056;-53
2023/04/10 01:00:17;;;;;;;54.90;36.42;;;8.40;99.90;;;;;;4942523;28;20502;-55
2023/04/10 01:02:43;;;;;;;60.67;36.63;;;8.30;99.90;;;;;;4942135;28;20791;-52
2023/04/10 01:05:11;;;;;;;54.20;36.20;;;8.30;99.90;;;;;;4940691;28;20039;-56
2023/04/10 01:07:49;;;;;;;58.58;36.78;;;8.30;99.90;;;;;;4945174;28;20487;-52
2023/04/10 01:10:32;;;;;;;58.75;37.78;;;8.30;99.90;;;;;;4941423;28;20157;-53
2023/04/10 01:13:21;;;;;;;61.67;37.28;;;8.30;99.90;;;;;;4926873;28;20058;-55
2023/04/10 01:15:57;;;;;;;58.95;37.33;;;8.20;99.90;;;;;;4942825;28;20050;-53
2023/04/10 01:18:35;;;;;;;59.78;38.08;;;8.20;99.90;;;;;;4941690;28;20051;-54
2023/04/10 01:21:04;;;;;;;60.80;38.50;;;8.20;99.90;;;;;;4930055;28;20050;-51
2023/04/10 01:23:41;;;;;;;64.50;39.17;;;8.10;99.90;;;;;;4939819;28;20495;-54
2023/04/10 01:26:16;;;;;;;60.85;37.72;;;8.10;99.90;;;;;;4935844;28;20563;-52
2023/04/10 01:29:00;;;;;;;64.00;40.30;;;8.10;99.90;;;;;;4941011;28;20089;-55
2023/04/10 01:31:37;;;;;;;61.22;39.42;;;8.10;99.90;;;;;;4943421;28;20050;-52
2023/04/10 01:34:09;;;;;;;65.32;42.22;;;8.00;99.90;;;;;;4945513;28;20583;-51
2023/04/10 01:36:42;;;;;;;62.60;41.35;;;8.00;99.90;;;;;;4942666;28;20051;-55
2023/04/10 01:39:09;;;;;;;61.95;40.25;;;8.00;99.90;;;;;;4942837;28;20058;-52
2023/04/10 01:41:36;;;;;;;60.60;41.03;;;8.00;99.90;;;;;;4945977;28;20087;-52
2023/04/10 01:44:03;;;;;;;66.85;41.60;;;8.00;99.90;;;;;;4947288;28;20051;-54
2023/04/10 01:46:29;;;;;;;67.80;41.40;;;7.90;99.90;;;;;;4943657;28;20076;-52
2023/04/10 01:48:56;;;;;;;66.53;41.83;;;7.90;99.90;;;;;;4945915;28;20054;-54
2023/04/10 01:51:22;;;;;;;69.30;41.88;;;7.90;99.90;;;;;;4946798;28;20169;-53
2023/04/10 01:53:49;;;;;;;68.53;43.63;;;7.90;99.90;;;;;;4939689;28;20046;-53
2023/04/10 01:56:15;;;;;;;62.35;41.88;;;7.90;99.90;;;;;;4943035;28;20070;-52
2023/04/10 01:58:41;;;;;;;66.95;43.28;;;7.80;99.90;;;;;;4944258;28;20522;-53
2023/04/10 02:01:07;;;;;;;63.55;40.67;;;7.80;99.90;;;;;;4942381;28;20042;-52
2023/04/10 02:03:33;;;;;;;68.97;42.78;;;7.80;99.90;;;;;;4945411;28;20058;-52
2023/04/10 02:06:20;;;;;;;67.05;42.53;;;7.80;99.90;;;;;;4941052;28;21952;-55
2023/04/10 02:08:55;;;;;;;64.68;42.75;;;7.80;99.90;;;;;;4943950;28;20051;-55
2023/04/10 02:11:25;;;;;;;64.22;42.88;;;7.80;99.90;;;;;;4945800;28;20557;-55
2023/04/10 02:13:53;;;;;;;64.85;41.72;;;7.70;99.90;;;;;;4944771;28;20039;-54
2023/04/10 02:16:21;;;;;;;64.60;41.97;;;7.70;99.90;;;;;;4942758;28;20093;-55
2023/04/10 02:18:48;;;;;;;69.53;44.10;;;7.70;99.90;;;;;;4943876;28;20944;-52
2023/04/10 02:21:14;;;;;;;66.75;43.53;;;7.70;99.90;;;;;;4935858;28;20055;-52
2023/04/10 02:23:40;;;;;;;68.05;43.55;;;7.70;99.90;;;;;;4936135;28;20054;-52
2023/04/10 02:26:07;;;;;;;67.57;44.85;;;7.70;99.90;;;;;;4938002;28;20048;-53
2023/04/10 02:28:33;;;;;;;67.40;44.10;;;7.70;99.90;;;;;;4942549;28;20051;-52
2023/04/10 02:30:59;;;;;;;64.95;42.78;;;7.70;99.90;;;;;;4939577;28;20065;-55
2023/04/10 02:33:25;;;;;;;70.78;43.65;;;7.60;99.90;;;;;;4943640;28;20046;-54
2023/04/10 02:35:50;;;;;;;70.55;44.05;;;7.60;99.90;;;;;;4943442;28;20047;-52
2023/04/10 02:38:16;;;;;;;69.15;43.15;;;7.60;99.90;;;;;;4946637;28;20078;-54
2023/04/10 02:40:42;;;;;;;68.38;44.60;;;7.60;99.90;;;;;;4941907;28;20150;-55
2023/04/10 02:43:07;;;;;;;65.53;43.35;;;7.60;99.90;;;;;;4945700;28;20618;-55
2023/04/10 02:45:33;;;;;;;68.00;43.75;;;7.60;99.90;;;;;;4941323;28;20573;-52
2023/04/10 02:47:59;;;;;;;67.60;45.10;;;7.50;99.90;;;;;;4945105;28;20138;-55
2023/04/10 02:50:28;;;;;;;66.82;43.50;;;7.50;99.90;;;;;;4945686;28;20378;-54
2023/04/10 02:52:55;;;;;;;66.38;42.90;;;7.50;99.90;;;;;;4942028;28;20444;-53
2023/04/10 02:55:21;;;;;;;67.47;43.63;;;7.50;99.90;;;;;;4943896;28;20090;-52
2023/04/10 02:57:46;;;;;;;64.32;43.38;;;7.50;99.90;;;;;;4945400;28;20071;-55
2023/04/10 03:00:13;;;;;;;68.47;44.05;;;7.50;99.90;;;;;;4941935;28;20059;-52
2023/04/10 03:02:38;;;;;;;68.60;44.90;;;7.50;99.90;;;;;;4943334;28;20086;-52
2023/04/10 03:05:05;;;;;;;69.80;44.58;;;7.50;99.90;;;;;;4936434;28;20470;-53
2023/04/10 03:07:31;;;;;;;68.50;43.08;;;7.50;99.90;;;;;;4946761;28;20066;-52
2023/04/10 03:09:56;;;;;;;64.38;43.03;;;7.50;99.90;;;;;;4939168;28;20142;-52
2023/04/10 03:12:22;;;;;;;64.70;42.72;;;7.50;99.90;;;;;;4938647;28;20766;-52
2023/04/10 03:14:48;;;;;;;65.78;43.28;;;7.50;99.90;;;;;;4945569;28;21396;-53
2023/04/10 03:17:14;;;;;;;67.70;42.22;;;7.50;99.90;;;;;;4939309;28;20047;-54
2023/04/10 03:19:39;;;;;;;68.13;43.55;;;7.50;99.90;;;;;;4939587;28;20035;-53
2023/04/10 03:22:05;;;;;;;64.03;41.42;;;7.50;99.90;;;;;;4944835;28;20130;-52
2023/04/10 03:24:31;;;;;;;62.97;42.42;;;7.40;99.90;;;;;;4931460;28;20577;-56
2023/04/10 03:26:57;;;;;;;68.25;42.42;;;7.40;99.90;;;;;;4946563;28;20053;-53
2023/04/10 03:29:23;;;;;;;66.47;42.47;;;7.40;99.90;;;;;;4944724;28;20054;-51
2023/04/10 03:31:48;;;;;;;71.80;43.15;;;7.40;99.90;;;;;;4934027;28;20131;-53
2023/04/10 03:34:15;;;;;;;66.10;43.20;;;7.40;99.90;;;;;;4917082;28;20610;-54
2023/04/10 03:36:41;;;;;;;64.82;42.30;;;7.40;99.90;;;;;;4940595;28;20615;-53
2023/04/10 03:39:07;;;;;;;67.93;43.80;;;7.40;99.90;;;;;;4945777;28;20051;-53
2023/04/10 03:41:32;;;;;;;65.90;43.17;;;7.30;99.90;;;;;;4947847;28;20193;-53
2023/04/10 03:44:00;;;;;;;66.22;43.15;;;7.30;99.90;;;;;;4948549;28;20055;-53
2023/04/10 03:46:26;;;;;;;67.25;42.67;;;7.30;99.90;;;;;;4945611;28;20555;-52
2023/04/10 03:48:52;;;;;;;66.63;43.20;;;7.30;99.90;;;;;;4944798;28;20043;-52
2023/04/10 03:51:18;;;;;;;67.70;43.30;;;7.30;99.90;;;;;;4947737;28;20047;-54
2023/04/10 03:53:44;;;;;;;63.40;42.40;;;7.30;99.90;;;;;;4945616;28;20801;-52
2023/04/10 03:56:10;;;;;;;64.18;42.38;;;7.20;99.90;;;;;;4947501;28;20054;-52
2023/04/10 03:58:36;;;;;;;66.32;42.65;;;7.20;99.90;;;;;;4943037;28;20074;-53
2023/04/10 04:01:01;;;;;;;71.90;45.72;;;7.20;99.90;;;;;;4936669;28;20079;-51
2023/04/10 04:03:27;;;;;;;66.53;42.80;;;7.20;99.90;;;;;;4930900;28;20062;-52
2023/04/10 04:05:53;;;;;;;68.70;44.17;;;7.20;99.90;;;;;;4943811;28;20470;-56
2023/04/10 04:08:18;;;;;;;66.15;43.78;;;7.20;99.90;;;;;;4943169;28;20043;-52
2023/04/10 04:10:44;;;;;;;64.65;44.03;;;7.20;99.90;;;;;;4943506;28;20461;-52
2023/04/10 04:13:10;;;;;;;64.28;43.47;;;7.10;99.90;;;;;;4946456;28;20058;-55
2023/04/10 04:15:36;;;;;;;63.28;42.65;;;7.10;99.90;;;;;;4946314;28;20067;-51
2023/04/10 04:18:01;;;;;;;71.47;44.72;;;7.10;99.90;;;;;;4940810;28;20959;-52
2023/04/10 04:20:27;;;;;;;68.10;44.55;;;7.10;99.90;;;;;;4939971;28;20475;-53
2023/04/10 04:22:53;;;;;;;65.68;42.85;;;7.10;99.90;;;;;;4946624;28;21363;-53
2023/04/10 04:25:19;;;;;;;65.93;42.50;;;7.10;99.90;;;;;;4945315;28;20139;-53
2023/04/10 04:27:45;;;;;;;66.90;43.92;;;7.10;99.90;;;;;;4941861;28;20053;-55
2023/04/10 04:30:10;;;;;;;69.35;44.50;;;7.10;99.90;;;;;;4944867;28;20409;-53
2023/04/10 04:32:36;;;;;;;71.82;44.67;;;7.10;99.90;;;;;;4940185;28;20047;-54
2023/04/10 04:35:02;;;;;;;68.75;44.45;;;7.10;99.90;;;;;;4929514;28;20043;-52
2023/04/10 04:37:28;;;;;;;66.05;42.65;;;7.10;99.90;;;;;;4925992;28;20050;-52
2023/04/10 04:39:54;;;;;;;68.15;43.17;;;7.10;99.90;;;;;;4941172;28;20047;-55
2023/04/10 04:42:19;;;;;;;72.55;44.83;;;7.10;99.90;;;;;;4930545;28;20051;-56
2023/04/10 04:44:45;;;;;;;64.20;43.13;;;7.10;99.90;;;;;;4944031;28;20105;-53
2023/04/10 04:47:11;;;;;;;66.55;42.65;;;7.10;99.90;;;;;;4938695;28;20936;-53
2023/04/10 04:49:36;;;;;;;65.90;43.97;;;7.20;99.90;;;;;;4940035;28;20817;-52
2023/04/10 04:52:02;;;;;;;67.47;44.10;;;7.20;99.90;;;;;;4941871;28;20042;-52
2023/04/10 04:54:28;;;;;;;67.78;44.78;;;7.20;99.90;;;;;;4939802;28;20073;-52
2023/04/10 04:56:54;;;;;;;66.53;43.75;;;7.20;99.90;;;;;;4932250;28;20049;-53
2023/04/10 04:59:20;;;;;;;65.07;43.05;;;7.10;99.90;;;;;;4940300;28;20062;-53
2023/04/10 05:01:45;;;;;;;68.15;43.10;;;7.20;99.90;;;;;;4937153;28;20085;-54
2023/04/10 05:04:11;;;;;;;67.72;44.70;;;7.20;99.90;;;;;;4938148;28;21169;-55
2023/04/10 05:06:37;;;;;;;64.45;43.72;;;7.20;99.90;;;;;;4939553;28;20355;-55
2023/04/10 05:09:03;;;;;;;69.28;45.17;;;7.20;99.90;;;;;;4939057;28;20039;-53
2023/04/10 05:11:28;;;;;;;64.82;43.17;;;7.20;99.90;;;;;;4933997;28;20047;-56
2023/04/10 05:13:54;;;;;;;69.60;43.92;;;7.20;99.90;;;;;;4940479;28;20047;-52
2023/04/10 05:16:20;;;;;;;66.63;43.42;;;7.30;99.90;;;;;;4940643;28;20047;-52
2023/04/10 05:18:46;;;;;;;67.57;44.90;;;7.30;99.90;;;;;;4935322;28;20879;-52
2023/04/10 05:21:11;;;;;;;66.57;44.60;;;7.30;99.90;;;;;;4937947;28;20042;-52
2023/04/10 05:23:37;;;;;;;67.78;43.70;;;7.40;99.90;;;;;;4937735;28;20133;-52
2023/04/10 05:26:04;;;;;;;65.43;43.90;;;7.40;99.90;;;;;;4940712;28;20035;-55
2023/04/10 05:28:30;;;;;;;70.82;44.42;;;7.40;99.90;;;;;;4939622;28;20058;-52
2023/04/10 05:30:56;;;;;;;60.38;40.83;;;7.50;99.90;;;;;;4932241;28;20043;-54
2023/04/10 05:33:22;;;;;;;63.72;41.83;;;7.50;99.90;;;;;;4940417;28;20485;-54
2023/04/10 05:35:47;;;;;;;65.82;43.35;;;7.50;99.90;;;;;;4931711;28;20058;-52
2023/04/10 05:38:13;;;;;;;65.43;43.45;;;7.60;99.90;;;;;;4941339;28;20050;-54
2023/04/10 05:40:39;;;;;;;66.38;42.33;;;7.60;99.90;;;;;;4939707;28;20061;-52
2023/04/10 05:43:04;;;;;;;67.75;41.75;;;7.60;99.90;;;;;;4937046;28;20063;-54
2023/04/10 05:45:30;;;;;;;62.58;41.25;;;7.70;99.90;;;;;;4940837;28;20535;-54
2023/04/10 05:47:56;;;;;;;61.30;41.35;;;7.70;99.90;;;;;;4945484;28;20054;-52
2023/04/10 05:50:21;;;;;;;62.08;41.78;;;7.80;99.90;;;;;;4932501;28;20398;-52
2023/04/10 05:52:47;;;;;;;59.95;39.50;;;7.80;99.90;;;;;;4945162;28;20080;-52
2023/04/10 05:55:13;;;;;;;63.05;40.40;;;7.80;99.90;;;;;;4941532;28;20512;-54
2023/04/10 05:57:39;;;;;;;63.60;40.38;;;7.80;99.90;;;;;;4938224;28;20619;-52
2023/04/10 06:00:05;;;;;;;61.75;39.25;;;7.80;99.90;;;;;;4941355;28;20050;-53
2023/04/10 06:02:31;;;;;;;60.80;39.30;;;7.90;99.90;;;;;;4939118;28;20619;-54
2023/04/10 06:04:57;;;;;;;59.05;38.45;;;7.90;99.90;;;;;;4940646;28;20043;-52
2023/04/10 06:07:23;;;;;;;58.05;38.38;;;8.00;99.90;;;;;;4940702;28;20078;-56
2023/04/10 06:09:49;;;;;;;62.63;38.95;;;8.00;99.90;;;;;;4940344;28;20062;-52
2023/04/10 06:12:15;;;;;;;55.38;36.95;;;8.00;99.90;;;;;;4940706;28;20035;-52
2023/04/10 06:14:41;;;;;;;57.35;37.50;;;8.10;99.90;;;;;;4942196;28;20469;-55
2023/04/10 06:17:06;;;;;;;55.22;37.53;;;8.10;99.90;;;;;;4938984;28;20069;-53
2023/04/10 06:19:32;;;;;;;54.28;37.35;;;8.20;99.90;;;;;;4943741;28;20443;-56
2023/04/10 06:21:58;;;;;;;54.60;36.90;;;8.20;99.90;;;;;;4941548;28;20050;-53
2023/04/10 06:24:23;;;;;;;51.10;35.47;;;8.30;99.90;;;;;;4939501;28;20047;-53
2023/04/10 06:26:49;;;;;;;51.22;34.80;;;8.40;99.90;;;;;;4943176;28;20574;-52
2023/04/10 06:29:15;;;;;;;56.42;35.03;;;8.40;99.90;;;;;;4941074;28;20062;-52
2023/04/10 06:31:41;;;;;;;51.80;34.70;;;8.50;99.90;;;;;;4937309;28;20054;-52
2023/04/10 06:34:06;;;;;;;50.25;33.90;;;8.50;99.90;;;;;;4942932;28;20066;-53
2023/04/10 06:36:32;;;;;;;51.30;32.50;;;8.60;99.90;;;;;;4944593;28;20114;-55
2023/04/10 06:38:58;;;;;;;51.30;32.17;;;8.70;99.90;;;;;;4938845;28;20059;-52
2023/04/10 06:41:24;;;;;;;48.08;31.08;;;8.70;99.90;;;;;;4937854;28;20121;-52
2023/04/10 06:43:49;;;;;;;46.10;31.00;;;8.80;99.90;;;;;;4937339;28;20128;-56
2023/04/10 06:46:16;;;;;;;49.10;31.55;;;8.80;99.90;;;;;;4941598;28;20182;-53
2023/04/10 06:48:41;;;;;;;48.35;32.15;;;8.90;99.90;;;;;;4923272;28;20069;-54
2023/04/10 06:51:07;;;;;;;49.17;31.65;;;9.00;99.90;;;;;;4944138;28;20042;-52
2023/04/10 06:53:33;;;;;;;49.05;31.95;;;9.00;99.90;;;;;;4930193;28;21365;-54
2023/04/10 06:55:58;;;;;;;48.03;32.55;;;9.10;99.90;;;;;;4937924;28;20047;-53
2023/04/10 06:58:24;;;;;;;48.85;32.22;;;9.20;99.90;;;;;;4938137;28;20158;-55
2023/04/10 07:00:50;;;;;;;46.50;32.70;;;9.20;99.90;;;;;;4947568;28;20051;-54
2023/04/10 07:03:16;;;;;;;49.72;31.15;;;9.30;99.90;;;;;;4940906;28;20055;-56
2023/04/10 07:05:41;;;;;;;45.22;30.98;;;9.30;99.90;;;;;;4945562;28;20051;-53
2023/04/10 07:08:07;;;;;;;45.72;31.08;;;9.40;99.90;;;;;;4941219;28;20054;-56
2023/04/10 07:10:33;;;;;;;44.15;29.20;;;9.40;99.90;;;;;;4940596;28;20051;-52
2023/04/10 07:13:00;;;;;;;42.15;29.00;;;9.40;99.90;;;;;;4942280;28;20054;-54
2023/04/10 07:15:26;;;;;;;41.70;28.30;;;9.40;99.90;;;;;;4937438;28;20070;-51
2023/04/10 07:17:51;;;;;;;42.53;28.00;;;9.50;99.90;;;;;;4940682;28;20148;-53
2023/04/10 07:20:17;;;;;;;41.55;27.90;;;9.50;99.90;;;;;;4949592;28;20187;-53
2023/04/10 07:22:43;;;;;;;40.10;26.90;;;9.60;99.90;;;;;;4950788;28;20794;-55
2023/04/10 07:25:09;;;;;;;38.88;25.98;;;9.60;99.90;;;;;;4948647;28;20138;-53
2023/04/10 07:27:34;;;;;;;40.97;27.50;;;9.70;99.90;;;;;;4945219;28;20074;-53
2023/04/10 07:30:00;;;;;;;39.17;26.98;;;9.80;99.90;;;;;;4946074;28;20069;-53
2023/04/10 07:32:26;;;;;;;39.85;26.13;;;9.80;99.90;;;;;;4940760;28;22057;-54
2023/04/10 07:34:52;;;;;;;41.03;25.27;;;9.90;99.90;;;;;;4940322;28;20050;-52
2023/04/10 07:37:18;;;;;;;35.83;25.42;;;10.00;99.90;;;;;;4937872;28;20047;-55
2023/04/10 07:39:44;;;;;;;38.17;25.95;;;10.10;99.90;;;;;;4946339;28;20074;-53
2023/04/10 07:42:12;;;;;;;41.75;27.60;;;10.20;99.90;;;;;;4950146;28;20089;-54
2023/04/10 07:44:38;;;;;;;37.28;26.75;;;10.30;99.90;;;;;;4952209;28;20062;-52
2023/04/10 07:47:04;;;;;;;42.67;28.60;;;10.40;99.90;;;;;;4952514;28;20490;-52
2023/04/10 07:49:29;;;;;;;42.60;28.92;;;10.50;99.90;;;;;;4944455;28;20054;-52
2023/04/10 07:51:55;;;;;;;43.05;29.10;;;10.70;99.90;;;;;;4949349;28;20307;-56
2023/04/10 07:54:21;;;;;;;48.20;30.23;;;10.80;99.80;;;;;;4939471;28;20090;-53
2023/04/10 07:56:47;;;;;;;44.55;29.20;;;11.00;99.80;;;;;;4948193;28;20070;-52
2023/04/10 07:59:12;;;;;;;39.45;27.92;;;11.10;99.70;;;;;;4954112;28;20141;-52
2023/04/10 08:01:38;;;;;;;43.17;29.33;;;11.20;99.50;;;;;;4938947;28;20480;-52
2023/04/10 08:04:04;;;;;;;40.40;28.80;;;11.40;99.30;;;;;;4951919;28;20117;-52
2023/04/10 08:06:31;;;;;;;40.80;27.58;;;11.50;99.00;;;;;;4948696;28;20045;-55
2023/04/10 08:08:57;;;;;;;38.22;26.75;;;11.60;98.70;;;;;;4950727;28;20046;-53
2023/04/10 08:11:33;;;;;;;38.53;27.02;;;11.70;98.50;;;;;;4950425;28;20043;-52
2023/04/10 08:14:01;;;;;;;38.42;25.77;;;11.80;98.40;;;;;;4950535;28;20136;-54
2023/04/10 08:16:28;;;;;;;38.17;26.65;;;11.80;97.80;;;;;;4948402;28;20342;-51
2023/04/10 08:18:56;;;;;;;38.15;25.95;;;11.80;97.50;;;;;;4947137;28;20081;-55
2023/04/10 08:21:24;;;;;;;35.75;25.00;;;11.80;97.10;;;;;;4951425;28;20082;-53
2023/04/10 08:23:52;;;;;;;36.08;24.35;;;11.90;96.80;;;;;;4946092;28;20051;-52
2023/04/10 08:26:18;;;;;;;34.30;22.55;;;11.90;96.50;;;;;;4948116;28;20042;-53
2023/04/10 08:28:49;;;;;;;35.00;24.10;;;12.00;96.40;;;;;;4951664;28;20502;-55
2023/04/10 08:31:16;;;;;;;33.30;22.75;;;12.10;96.60;;;;;;4950471;28;20042;-52
2023/04/10 08:33:41;;;;;;;32.55;22.90;;;12.20;96.10;;;;;;4949095;28;20039;-52
2023/04/10 08:36:11;;;;;;;34.95;23.63;;;12.30;95.50;;;;;;4951185;28;20054;-56
2023/04/10 08:38:38;;;;;;;35.33;24.23;;;12.40;95.10;;;;;;4949527;28;20613;-53
2023/04/10 08:41:05;;;;;;;33.75;23.75;;;12.50;94.50;;;;;;4951417;28;20474;-52
2023/04/10 08:43:31;;;;;;;32.72;23.08;;;12.60;94.20;;;;;;4949584;28;20055;-53
2023/04/10 08:45:58;;;;;;;34.95;23.65;;;12.70;93.90;;;;;;4951278;28;20130;-55
2023/04/10 08:48:37;;;;;;;34.80;23.80;;;12.80;93.80;;;;;;4951043;28;20039;-53
2023/04/10 08:51:04;;;;;;;35.40;23.67;;;12.90;93.70;;;;;;4947111;28;20101;-52
2023/04/10 08:53:32;;;;;;;35.10;23.25;;;12.90;93.90;;;;;;4949180;28;20078;-56
2023/04/10 08:56:02;;;;;;;31.40;21.98;;;13.00;93.40;;;;;;4946233;28;20395;-53
2023/04/10 08:58:29;;;;;;;33.42;23.35;;;13.10;92.70;;;;;;4948504;28;20039;-52
2023/04/10 09:00:55;;;;;;;31.13;22.02;;;13.20;92.80;;;;;;4940981;28;20058;-54
2023/04/10 09:03:21;;;;;;;34.50;23.83;;;13.30;92.60;;;;;;4949476;28;20557;-53
2023/04/10 09:05:47;;;;;;;32.60;23.08;;;13.30;92.30;;;;;;4949539;28;20042;-53
2023/04/10 09:08:14;;;;;;;32.97;23.38;;;13.40;92.30;;;;;;4948648;28;20054;-56
2023/04/10 09:10:41;;;;;;;35.67;23.45;;;13.50;91.70;;;;;;4936867;28;20063;-53
2023/04/10 09:13:06;;;;;;;32.72;22.98;;;13.50;90.80;;;;;;4949516;28;21127;-52
2023/04/10 09:15:55;;;;;;;30.77;22.95;;;13.50;90.80;;;;;;4947887;28;20049;-52
2023/04/10 09:18:21;;;;;;;33.85;23.10;;;13.50;91.20;;;;;;4948947;28;20050;-54
2023/04/10 09:20:50;;;;;;;33.42;22.70;;;13.60;91.50;;;;;;4951324;28;20047;-53
2023/04/10 09:23:20;;;;;;;32.85;23.88;;;13.70;91.30;;;;;;4948969;28;20051;-55
2023/04/10 09:25:46;;;;;;;31.02;22.73;;;13.80;91.20;;;;;;4945943;28;20904;-53
2023/04/10 09:28:12;;;;;;;36.45;23.67;;;13.90;91.30;;;;;;4947989;28;20034;-53
2023/04/10 09:30:39;;;;;;;31.20;21.30;;;14.00;91.30;;;;;;4944930;28;20053;-52
2023/04/10 09:33:26;;;;;;;30.38;21.52;;;14.00;90.70;;;;;;4948793;28;20622;-55
2023/04/10 09:35:53;;;;;;;31.98;21.45;;;14.00;90.30;;;;;;4946522;28;20495;-52
2023/04/10 09:38:20;;;;;;;29.63;21.60;;;14.00;90.20;;;;;;4945809;28;20458;-53
2023/04/10 09:40:47;;;;;;;27.77;20.80;;;14.00;90.20;;;;;;4945331;28;20059;-53
2023/04/10 09:43:39;;;;;;;28.52;19.98;;;14.10;89.70;;;;;;4945035;28;20051;-52
2023/04/10 09:46:05;;;;;;;29.45;20.33;;;14.10;89.40;;;;;;4942786;28;20636;-54
2023/04/10 09:48:31;;;;;;;23.67;18.50;;;14.20;87.80;;;;;;4945921;28;20097;-52
2023/04/10 09:50:56;;;;;;;27.45;19.10;;;14.30;86.60;;;;;;4946457;28;20051;-53
2023/04/10 09:53:22;;;;;;;25.30;17.67;;;14.40;86.90;;;;;;4946153;28;20043;-52
2023/04/10 09:55:49;;;;;;;24.27;17.83;;;14.40;86.10;;;;;;4942827;28;20047;-54
2023/04/10 09:58:16;;;;;;;22.27;16.90;;;14.50;86.00;;;;;;4943396;28;20524;-53
2023/04/10 10:00:48;;;;;;;24.05;17.15;;;14.60;86.00;;;;;;4946364;28;20072;-54
2023/04/10 10:03:15;;;;;;;21.20;15.75;;;14.60;85.90;;;;;;4947675;28;20046;-53
2023/04/10 10:05:46;;;;;;;23.25;17.05;;;14.70;84.90;;;;;;4946441;28;20050;-56
2023/04/10 10:08:14;;;;;;;22.48;16.92;;;14.80;84.30;;;;;;4945270;28;20228;-52
2023/04/10 10:11:00;;;;;;;21.33;16.15;;;14.90;83.80;;;;;;4934886;28;20054;-55
2023/04/10 10:13:57;;;;;;;20.52;15.52;;;15.10;83.90;;;;;;4943118;28;20565;-53
2023/04/10 10:16:40;;;;;;;18.98;14.43;;;15.20;84.20;;;;;;4931835;28;20047;-54
2023/04/10 10:19:19;;;;;;;18.85;13.23;;;15.30;82.70;;;;;;4939135;28;20039;-52
2023/04/10 10:21:46;;;;;;;19.38;14.05;;;15.40;81.10;;;;;;4948242;28;20110;-57
2023/04/10 10:24:13;;;;;;;18.42;13.25;;;15.40;80.50;;;;;;4947441;28;20509;-53
2023/04/10 10:26:39;;;;;;;15.93;11.27;;;15.40;80.50;;;;;;4945341;28;20702;-54
2023/04/10 10:29:12;;;;;;;18.05;11.40;;;15.40;77.20;;;;;;4949861;28;20490;-54
2023/04/10 10:31:39;;;;;;;17.02;12.02;;;15.30;77.30;;;;;;4949354;28;20126;-53
2023/04/10 10:34:08;;;;;;;15.95;11.20;;;15.30;77.50;;;;;;4948588;28;20043;-53
2023/04/10 10:36:39;;;;;;;16.75;11.80;;;15.30;76.20;;;;;;4950689;28;20046;-52
2023/04/10 10:39:05;;;;;;;14.90;11.63;;;15.30;75.80;;;;;;4947457;28;20543;-52
2023/04/10 10:42:04;;;;;;;14.55;11.40;;;15.20;75.30;;;;;;4945855;28;20059;-54
2023/04/10 10:44:46;;;;;;;17.38;12.20;;;15.20;76.40;;;;;;4941128;28;20055;-53
2023/04/10 10:47:19;;;;;;;14.82;11.05;;;15.10;75.90;;;;;;4950202;28;20524;-52
2023/04/10 10:49:59;;;;;;;13.93;10.40;;;15.10;76.00;;;;;;4951838;28;20126;-52
2023/04/10 10:52:41;;;;;;;12.85;10.45;;;15.00;75.80;;;;;;4948161;28;20062;-56
2023/04/10 10:55:26;;;;;;;14.48;10.43;;;15.00;76.00;;;;;;4948083;28;20057;-55
2023/04/10 10:57:53;;;;;;;13.57;10.68;;;15.00;75.00;;;;;;4947344;28;20061;-54
2023/04/10 11:00:21;;;;;;;13.15;10.52;;;15.00;75.60;;;;;;4950450;28;20043;-56
2023/04/10 11:03:09;;;;;;;13.23;10.10;;;15.00;76.10;;;;;;4948283;28;20046;-53
2023/04/10 11:06:01;;;;;;;12.95;10.15;;;15.00;76.80;;;;;;4949439;28;20148;-53
2023/04/10 11:08:39;;;;;;;13.00;10.18;;;15.00;76.30;;;;;;4950702;28;20053;-56
2023/04/10 11:11:06;;;;;;;11.73;9.63;;;15.10;75.70;;;;;;4947051;28;20552;-56
2023/04/10 11:13:54;;;;;;;13.30;9.93;;;15.10;75.80;;;;;;4947644;28;20074;-53
2023/04/10 11:16:42;;;;;;;13.88;9.55;;;15.20;76.10;;;;;;4941614;28;20089;-53
2023/04/10 11:19:13;;;;;;;13.73;9.38;;;15.20;76.50;;;;;;4927897;28;20149;-52
2023/04/10 11:22:14;;;;;;;12.23;9.20;;;15.30;77.70;;;;;;4952251;28;20438;-52
2023/04/10 11:25:09;;;;;;;17.55;8.18;;;15.40;76.20;;;;;;4926941;28;20078;-53
2023/04/10 11:27:50;;;;;;;12.20;8.35;;;15.40;75.60;;;;;;4935567;28;20055;-54
2023/04/10 11:30:33;;;;;;;11.82;8.38;;;15.40;75.30;;;;;;4950198;28;20057;-53
2023/04/10 11:33:00;;;;;;;9.82;8.15;;;15.50;75.00;;;;;;4948309;28;20061;-52
2023/04/10 11:35:27;;;;;;;11.13;7.43;;;15.40;74.70;;;;;;4947674;28;20085;-56
2023/04/10 11:38:14;;;;;;;11.80;7.70;;;15.40;74.70;;;;;;4950387;28;20062;-55
2023/04/10 11:40:53;;;;;;;9.48;7.43;;;15.40;75.00;;;;;;4946902;28;20146;-54
2023/04/10 11:43:19;;;;;;;9.20;7.60;;;15.40;75.00;;;;;;4949635;28;20063;-52
2023/04/10 11:45:45;;;;;;;9.70;6.97;;;15.40;75.00;;;;;;4950414;28;20328;-52
2023/04/10 11:48:11;;;;;;;10.55;6.68;;;15.40;73.90;;;;;;4947319;28;20049;-54
2023/04/10 11:50:37;;;;;;;9.60;6.85;;;15.40;73.40;;;;;;4949569;28;20429;-54
2023/04/10 11:53:20;;;;;;;8.15;7.07;;;15.30;73.30;;;;;;4945964;28;20045;-54
2023/04/10 11:55:46;;;;;;;9.05;7.03;;;15.30;74.10;;;;;;4945083;28;20548;-52
2023/04/10 11:58:22;;;;;;;7.82;6.68;;;15.40;75.50;;;;;;4944649;28;20046;-53
2023/04/10 12:01:00;;;;;;;8.60;6.55;;;15.50;75.60;;;;;;4948474;28;20054;-52
2023/04/10 12:03:42;;;;;;;9.40;6.25;;;15.60;75.30;;;;;;4946982;28;20126;-52
2023/04/10 12:06:13;;;;;;;7.28;6.28;;;15.70;74.80;;;;;;4946778;28;20100;-52
2023/04/10 12:08:50;;;;;;;10.15;5.80;;;15.90;74.50;;;;;;4950391;28;20134;-53
2023/04/10 12:11:25;;;;;;;8.45;5.85;;;16.00;74.40;;;;;;4947213;28;20149;-53
2023/04/10 12:13:53;;;;;;;10.27;6.13;;;16.10;73.40;;;;;;4944725;28;20656;-56
2023/04/10 12:16:19;;;;;;;6.88;5.85;;;16.20;73.30;;;;;;4949606;28;20054;-52
2023/04/10 12:18:45;;;;;;;6.57;5.30;;;16.30;74.30;;;;;;4936161;28;20057;-52
2023/04/10 12:21:11;;;;;;;9.00;5.82;;;16.40;72.60;;;;;;4948260;28;20061;-55
2023/04/10 12:23:38;;;;;;;9.05;5.22;;;16.60;72.50;;;;;;4937021;28;20047;-54
2023/04/10 12:26:17;;;;;;;7.68;5.22;;;16.80;72.00;;;;;;4945537;28;20090;-54
2023/04/10 12:28:57;;;;;;;6.45;5.32;;;17.10;71.60;;;;;;4936884;28;20046;-54
2023/04/10 12:31:31;;;;;;;7.78;4.97;;;17.30;69.70;;;;;;4948073;28;20039;-52
2023/04/10 12:33:58;;;;;;;13.25;5.00;;;17.20;67.50;;;;;;4947781;28;20047;-52
2023/04/10 12:36:29;;;;;;;6.93;4.90;;;17.10;68.00;;;;;;4947255;28;20442;-54
2023/04/10 12:39:00;;;;;;;5.35;4.25;;;17.00;67.70;;;;;;4947761;28;20053;-53
2023/04/10 12:41:28;;;;;;;7.32;4.90;;;16.90;68.80;;;;;;4944784;28;20058;-52
2023/04/10 12:44:10;;;;;;;5.90;4.70;;;16.80;68.30;;;;;;4947160;28;20598;-53